createdAt,value
2023-04-17T00:02:01.942Z,100.00
2023-04-17T00:04:31.207Z,100.00
2023-04-17T00:07:03.610Z,100.00
2023-04-17T00:09:33.468Z,100.00
2023-04-17T00:12:02.635Z,100.00
2023-04-17T00:14:31.487Z,100.00
2023-04-17T00:17:00.382Z,100.00
2023-04-17T00:19:28.898Z,100.00
2023-04-17T00:21:57.599Z,100.00
2023-04-17T00:24:27.885Z,100.00
2023-04-17T00:26:56.553Z,100.00
2023-04-17T00:29:25.430Z,100.00
2023-04-17T00:31:53.970Z,100.00
2023-04-17T00:34:22.464Z,100.00
2023-04-17T00:36:51.245Z,100.00
2023-04-17T00:39:20.138Z,100.00
2023-04-17T00:41:50.086Z,100.00
2023-04-17T00:44:18.741Z,100.00
2023-04-17T00:46:47.570Z,100.00
2023-04-17T00:49:16.399Z,100.00
2023-04-17T00:51:45.305Z,100.00
2023-04-17T00:54:14.432Z,100.00
2023-04-17T00:56:45.765Z,100.00
2023-04-17T00:59:18.819Z,100.00
2023-04-17T01:01:47.614Z,100.00
2023-04-17T01:04:16.300Z,100.00
2023-04-17T01:06:45.278Z,100.00
2023-04-17T01:09:15.420Z,100.00
2023-04-17T01:11:46.601Z,100.00
2023-04-17T01:14:18.162Z,100.00
2023-04-17T01:16:46.807Z,100.00
2023-04-17T01:19:17.148Z,100.00
2023-04-17T01:21:46.218Z,100.00
2023-04-17T01:24:16.130Z,100.00
2023-04-17T01:26:44.856Z,100.00
2023-04-17T01:29:13.742Z,100.00
2023-04-17T01:31:42.571Z,100.00
2023-04-17T01:34:11.034Z,100.00
2023-04-17T01:36:39.971Z,100.00
2023-04-17T01:39:08.896Z,100.00
2023-04-17T01:41:39.865Z,100.00
2023-04-17T01:44:08.438Z,100.00
2023-04-17T01:46:37.427Z,100.00
2023-04-17T01:49:06.251Z,100.00
2023-04-17T01:51:35.100Z,100.00
2023-04-17T01:54:03.650Z,100.00
2023-04-17T01:56:32.316Z,100.00
2023-04-17T01:59:02.485Z,100.00
2023-04-17T02:01:33.094Z,100.00
2023-04-17T02:04:02.431Z,100.00
2023-04-17T02:06:35.265Z,100.00
2023-04-17T02:09:04.760Z,100.00
2023-04-17T02:11:33.415Z,100.00
2023-04-17T02:14:04.512Z,100.00
2023-04-17T02:16:33.255Z,100.00
2023-04-17T02:19:01.920Z,100.00
2023-04-17T02:21:31.342Z,100.00
2023-04-17T02:23:59.692Z,100.00
2023-04-17T02:26:27.879Z,100.00
2023-04-17T02:28:56.258Z,100.00
2023-04-17T02:31:26.563Z,100.00
2023-04-17T02:33:55.154Z,100.00
2023-04-17T02:36:23.540Z,100.00
2023-04-17T02:38:54.402Z,100.00
2023-04-17T02:41:22.892Z,100.00
2023-04-17T02:43:51.777Z,100.00
2023-04-17T02:46:20.584Z,100.00
2023-04-17T02:48:50.463Z,100.00
2023-04-17T02:51:19.005Z,100.00
2023-04-17T02:53:49.469Z,100.00
2023-04-17T02:56:18.390Z,100.00
2023-04-17T02:58:47.570Z,100.00
2023-04-17T03:01:16.256Z,100.00
2023-04-17T03:03:45.496Z,100.00
2023-04-17T03:06:16.043Z,100.00
2023-04-17T03:08:44.511Z,100.00
2023-04-17T03:11:13.190Z,100.00
2023-04-17T03:13:41.978Z,100.00
2023-04-17T03:16:10.774Z,100.00
2023-04-17T03:18:41.789Z,100.00
2023-04-17T03:21:10.457Z,100.00
2023-04-17T03:23:40.196Z,100.00
2023-04-17T03:26:08.797Z,100.00
2023-04-17T03:28:37.842Z,100.00
2023-04-17T03:31:06.750Z,100.00
2023-04-17T03:33:36.848Z,100.00
2023-04-17T03:36:05.834Z,100.00
2023-04-17T03:38:34.976Z,100.00
2023-04-17T03:41:05.006Z,100.00
2023-04-17T03:43:33.194Z,100.00
2023-04-17T03:46:01.940Z,100.00
2023-04-17T03:48:30.300Z,100.00
2023-04-17T03:50:59.007Z,100.00
2023-04-17T03:53:27.419Z,100.00
2023-04-17T03:55:56.026Z,100.00
2023-04-17T03:58:27.815Z,100.00
2023-04-17T04:00:59.279Z,100.00
2023-04-17T04:03:28.152Z,100.00
2023-04-17T04:05:57.333Z,100.00
2023-04-17T04:08:26.719Z,100.00
2023-04-17T04:10:55.509Z,100.00
2023-04-17T04:13:25.955Z,100.00
2023-04-17T04:15:54.359Z,100.00
2023-04-17T04:18:23.072Z,100.00
2023-04-17T04:20:51.969Z,100.00
2023-04-17T04:23:21.288Z,100.00
2023-04-17T04:25:50.940Z,100.00
2023-04-17T04:28:19.626Z,100.00
2023-04-17T04:30:50.833Z,100.00
2023-04-17T04:33:20.896Z,100.00
2023-04-17T04:35:51.446Z,100.00
2023-04-17T04:38:20.535Z,100.00
2023-04-17T04:40:50.300Z,100.00
2023-04-17T04:43:20.826Z,100.00
2023-04-17T04:45:52.390Z,100.00
2023-04-17T04:48:20.938Z,100.00
2023-04-17T04:50:49.762Z,100.00
2023-04-17T04:53:18.660Z,100.00
2023-04-17T04:55:47.627Z,100.00
2023-04-17T04:58:16.579Z,100.00
2023-04-17T05:00:45.416Z,100.00
2023-04-17T05:03:15.405Z,100.00
2023-04-17T05:05:45.190Z,100.00
2023-04-17T05:08:14.230Z,100.00
2023-04-17T05:10:42.932Z,100.00
2023-04-17T05:13:14.536Z,100.00
2023-04-17T05:15:43.495Z,100.00
2023-04-17T05:18:11.977Z,100.00
2023-04-17T05:20:44.255Z,100.00
2023-04-17T05:23:13.193Z,100.00
2023-04-17T05:25:42.650Z,100.00
2023-04-17T05:28:11.447Z,100.00
2023-04-17T05:30:40.216Z,100.00
2023-04-17T05:33:09.045Z,100.00
2023-04-17T05:35:41.630Z,100.00
2023-04-17T05:38:11.922Z,100.00
2023-04-17T05:40:40.835Z,100.00
2023-04-17T05:43:10.494Z,100.00
2023-04-17T05:45:41.644Z,100.00
2023-04-17T05:48:10.311Z,100.00
2023-04-17T05:50:39.001Z,100.00
2023-04-17T05:53:07.964Z,100.00
2023-04-17T05:55:37.958Z,100.00
2023-04-17T05:58:16.812Z,100.00
2023-04-17T06:00:52.022Z,100.00
2023-04-17T06:03:21.762Z,100.00
2023-04-17T06:05:50.786Z,100.00
2023-04-17T06:08:22.384Z,100.00
2023-04-17T06:10:54.452Z,100.00
2023-04-17T06:13:23.286Z,100.00
2023-04-17T06:15:52.641Z,100.00
2023-04-17T06:18:21.274Z,100.00
2023-04-17T06:20:49.804Z,100.00
2023-04-17T06:23:18.538Z,100.00
2023-04-17T06:25:47.200Z,100.00
2023-04-17T06:28:17.274Z,100.00
2023-04-17T06:30:45.921Z,100.00
2023-04-17T06:33:14.770Z,100.00
2023-04-17T06:35:44.976Z,100.00
2023-04-17T06:38:13.719Z,100.00
2023-04-17T06:40:42.375Z,100.00
2023-04-17T06:43:11.124Z,100.00
2023-04-17T06:45:43.316Z,100.00
2023-04-17T06:48:11.764Z,100.00
2023-04-17T06:50:40.422Z,100.00
2023-04-17T06:53:09.125Z,100.00
2023-04-17T06:55:37.854Z,100.00
2023-04-17T06:58:07.921Z,100.00
2023-04-17T07:00:36.796Z,100.00
2023-04-17T07:03:07.016Z,100.00
2023-04-17T07:05:35.918Z,100.00
2023-04-17T07:08:07.510Z,100.00
2023-04-17T07:10:36.134Z,100.00
2023-04-17T07:13:04.952Z,100.00
2023-04-17T07:15:33.586Z,100.00
2023-04-17T07:18:04.794Z,100.00
2023-04-17T07:20:34.420Z,100.00
2023-04-17T07:23:03.430Z,100.00
2023-04-17T07:25:31.962Z,100.00
2023-04-17T07:28:01.734Z,100.00
2023-04-17T07:30:34.273Z,100.00
2023-04-17T07:33:03.332Z,100.00
2023-04-17T07:35:32.227Z,100.00
2023-04-17T07:38:04.225Z,100.00
2023-04-17T07:40:33.564Z,100.00
2023-04-17T07:43:02.283Z,100.00
2023-04-17T07:45:31.005Z,100.00
2023-04-17T07:47:59.839Z,100.00
2023-04-17T07:50:28.606Z,100.00
2023-04-17T07:52:58.026Z,100.00
2023-04-17T07:55:31.322Z,100.00
2023-04-17T07:58:04.046Z,100.00
2023-04-17T08:00:35.816Z,100.00
2023-04-17T08:03:05.874Z,100.00
2023-04-17T08:05:34.897Z,100.00
2023-04-17T08:08:05.980Z,100.00
2023-04-17T08:10:38.331Z,100.00
2023-04-17T08:13:08.207Z,100.00
2023-04-17T08:15:40.997Z,100.00
2023-04-17T08:18:10.753Z,100.00
2023-04-17T08:20:43.161Z,100.00
2023-04-17T08:23:12.805Z,100.00
2023-04-17T08:25:42.985Z,100.00
2023-04-17T08:28:11.753Z,100.00
2023-04-17T08:30:40.850Z,100.00
2023-04-17T08:33:09.643Z,100.00
2023-04-17T08:35:41.132Z,100.00
2023-04-17T08:38:10.693Z,100.00
2023-04-17T08:40:42.300Z,100.00
2023-04-17T08:43:17.468Z,100.00
2023-04-17T08:45:54.736Z,100.00
2023-04-17T08:48:25.061Z,100.00
2023-04-17T08:50:54.929Z,100.00
2023-04-17T08:53:23.945Z,100.00
2023-04-17T08:55:53.238Z,100.00
2023-04-17T08:58:28.636Z,100.00
2023-04-17T09:01:09.034Z,100.00
2023-04-17T09:03:49.694Z,100.00
2023-04-17T09:06:18.595Z,100.00
2023-04-17T09:08:57.280Z,100.00
2023-04-17T09:11:28.706Z,100.00
2023-04-17T09:13:58.658Z,100.00
2023-04-17T09:16:28.643Z,100.00
2023-04-17T09:19:07.059Z,100.00
2023-04-17T09:21:39.581Z,100.00
2023-04-17T09:24:10.225Z,100.00
2023-04-17T09:26:38.736Z,100.00
2023-04-17T09:29:12.202Z,100.00
2023-04-17T09:31:45.448Z,100.00
2023-04-17T09:34:16.744Z,100.00
2023-04-17T09:36:48.109Z,100.00
2023-04-17T09:39:21.282Z,100.00
2023-04-17T09:41:49.774Z,100.00
2023-04-17T09:44:28.246Z,100.00
2023-04-17T09:46:57.493Z,100.00
2023-04-17T09:49:34.008Z,100.00
2023-04-17T09:52:02.818Z,100.00
2023-04-17T09:54:33.039Z,100.00
2023-04-17T09:57:03.957Z,100.00
2023-04-17T09:59:35.093Z,100.00
2023-04-17T10:02:05.859Z,99.55
2023-04-17T10:04:35.015Z,98.71
2023-04-17T10:07:06.898Z,96.25
2023-04-17T10:09:35.487Z,93.43
2023-04-17T10:12:05.163Z,95.56
2023-04-17T10:14:37.896Z,96.51
2023-04-17T10:17:24.136Z,96.40
2023-04-17T10:19:53.130Z,95.79
2023-04-17T10:22:31.609Z,95.48
2023-04-17T10:25:23.648Z,93.74
2023-04-17T10:27:53.699Z,95.13
2023-04-17T10:30:29.456Z,91.68
2023-04-17T10:33:28.252Z,91.00
2023-04-17T10:35:57.387Z,86.62
2023-04-17T10:38:37.067Z,83.94
2023-04-17T10:41:09.609Z,81.07
2023-04-17T10:43:43.012Z,82.34
2023-04-17T10:46:15.134Z,81.11
2023-04-17T10:48:49.909Z,81.69
2023-04-17T10:51:44.950Z,81.88
2023-04-17T10:54:15.849Z,77.90
2023-04-17T10:56:48.470Z,80.64
2023-04-17T10:59:23.723Z,80.90
2023-04-17T11:02:06.895Z,82.30
2023-04-17T11:04:36.042Z,81.70
2023-04-17T11:07:07.506Z,82.20
2023-04-17T11:09:36.499Z,79.35
2023-04-17T11:12:09.937Z,80.14
2023-04-17T11:14:42.899Z,80.46
2023-04-17T11:17:13.069Z,81.14
2023-04-17T11:19:41.666Z,79.40
2023-04-17T11:22:14.517Z,76.48
2023-04-17T11:24:43.724Z,79.32
2023-04-17T11:27:13.146Z,76.17
2023-04-17T11:29:41.818Z,76.47
2023-04-17T11:32:13.930Z,72.46
2023-04-17T11:34:43.551Z,73.83
2023-04-17T11:37:15.293Z,74.63
2023-04-17T11:39:44.708Z,77.20
2023-04-17T11:42:13.635Z,71.64
2023-04-17T11:44:44.567Z,70.75
2023-04-17T11:47:15.077Z,69.74
2023-04-17T11:49:44.226Z,68.76
2023-04-17T11:52:14.831Z,67.81
2023-04-17T11:54:44.536Z,68.28
2023-04-17T11:57:14.611Z,66.80
2023-04-17T11:59:45.895Z,69.53
2023-04-17T12:02:18.076Z,69.09
2023-04-17T12:04:47.339Z,69.69
2023-04-17T12:07:27.332Z,73.04
2023-04-17T12:09:58.897Z,73.44
2023-04-17T12:12:27.217Z,73.14
2023-04-17T12:14:55.935Z,73.33
2023-04-17T12:17:26.146Z,74.46
2023-04-17T12:19:55.108Z,75.56
2023-04-17T12:22:25.210Z,76.69
2023-04-17T12:24:58.852Z,77.14
2023-04-17T12:27:33.246Z,78.64
2023-04-17T12:30:01.979Z,80.93
2023-04-17T12:32:33.252Z,82.43
2023-04-17T12:35:02.126Z,83.52
2023-04-17T12:37:30.562Z,85.45
2023-04-17T12:39:59.669Z,86.04
2023-04-17T12:42:31.411Z,84.52
2023-04-17T12:45:03.602Z,84.04
2023-04-17T12:47:33.972Z,82.32
2023-04-17T12:50:02.855Z,81.68
2023-04-17T12:52:32.141Z,82.84
2023-04-17T12:55:01.407Z,84.29
2023-04-17T12:57:30.479Z,84.45
2023-04-17T12:59:59.246Z,80.91
2023-04-17T13:02:28.124Z,79.44
2023-04-17T13:04:58.242Z,80.04
2023-04-17T13:07:27.196Z,78.06
2023-04-17T13:09:55.795Z,78.81
2023-04-17T13:12:24.229Z,77.90
2023-04-17T13:14:53.425Z,80.53
2023-04-17T13:17:27.451Z,78.35
2023-04-17T13:19:57.572Z,76.83
2023-04-17T13:22:27.196Z,79.98
2023-04-17T13:24:57.293Z,80.03
2023-04-17T13:27:25.825Z,80.34
2023-04-17T13:29:54.402Z,79.43
2023-04-17T13:32:23.281Z,79.92
2023-04-17T13:34:55.487Z,80.02
2023-04-17T13:37:27.097Z,77.19
2023-04-17T13:39:55.452Z,80.22
2023-04-17T13:42:28.244Z,82.50
2023-04-17T13:44:57.190Z,83.86
2023-04-17T13:47:26.950Z,85.79
2023-04-17T13:49:56.720Z,84.73
2023-04-17T13:52:27.287Z,85.07
2023-04-17T13:54:59.843Z,86.22
2023-04-17T13:57:28.889Z,85.97
2023-04-17T14:00:00.390Z,83.96
2023-04-17T14:02:30.170Z,85.19
2023-04-17T14:04:59.085Z,84.32
2023-04-17T14:07:30.292Z,84.61
2023-04-17T14:09:59.313Z,86.56
2023-04-17T14:12:28.301Z,87.35
2023-04-17T14:14:58.228Z,85.66
2023-04-17T14:17:27.351Z,86.42
2023-04-17T14:19:55.851Z,86.45
2023-04-17T14:22:24.578Z,86.95
2023-04-17T14:24:54.852Z,87.92
2023-04-17T14:27:26.070Z,87.12
2023-04-17T14:29:58.857Z,86.63
2023-04-17T14:32:29.511Z,86.52
2023-04-17T14:34:58.298Z,87.16
2023-04-17T14:37:27.134Z,86.10
2023-04-17T14:39:57.357Z,86.07
2023-04-17T14:42:26.772Z,84.97
2023-04-17T14:44:55.359Z,84.86
2023-04-17T14:47:28.728Z,85.48
2023-04-17T14:50:01.333Z,84.08
2023-04-17T14:52:30.104Z,84.59
2023-04-17T14:55:00.486Z,85.11
2023-04-17T14:57:29.248Z,85.98
2023-04-17T14:59:57.868Z,86.42
2023-04-17T15:02:27.240Z,87.35
2023-04-17T15:04:56.822Z,89.00
2023-04-17T15:07:25.584Z,87.67
2023-04-17T15:09:56.311Z,89.25
2023-04-17T15:12:26.665Z,88.80
2023-04-17T15:14:56.703Z,88.87
2023-04-17T15:17:25.605Z,89.35
2023-04-17T15:19:57.568Z,88.88
2023-04-17T15:22:27.133Z,88.07
2023-04-17T15:24:56.064Z,87.49
2023-04-17T15:27:26.083Z,85.26
2023-04-17T15:29:55.445Z,85.15
2023-04-17T15:32:24.682Z,85.63
2023-04-17T15:34:53.376Z,86.76
2023-04-17T15:37:22.053Z,88.18
2023-04-17T15:39:51.396Z,88.84
2023-04-17T15:42:20.557Z,88.80
2023-04-17T15:44:53.427Z,90.00
2023-04-17T15:47:22.599Z,88.53
2023-04-17T15:49:51.639Z,89.08
2023-04-17T15:52:20.382Z,88.09
2023-04-17T15:54:49.355Z,87.72
2023-04-17T15:57:17.980Z,89.59
2023-04-17T15:59:46.694Z,88.73
2023-04-17T16:02:17.030Z,87.53
2023-04-17T16:04:45.554Z,87.19
2023-04-17T16:07:14.525Z,87.52
2023-04-17T16:09:44.632Z,87.14
2023-04-17T16:12:14.169Z,86.83
2023-04-17T16:14:46.858Z,86.68
2023-04-17T16:17:17.924Z,86.33
2023-04-17T16:19:49.611Z,87.10
2023-04-17T16:22:19.591Z,87.03
2023-04-17T16:24:47.969Z,88.13
2023-04-17T16:27:16.452Z,88.99
2023-04-17T16:29:45.953Z,88.60
2023-04-17T16:32:15.699Z,89.34
2023-04-17T16:34:49.039Z,89.21
2023-04-17T16:37:18.179Z,90.05
2023-04-17T16:39:47.529Z,90.54
2023-04-17T16:42:18.092Z,90.83
2023-04-17T16:44:47.364Z,90.81
2023-04-17T16:47:16.765Z,91.86
2023-04-17T16:49:45.747Z,92.72
2023-04-17T16:52:15.671Z,92.57
2023-04-17T16:54:47.028Z,95.01
2023-04-17T16:57:19.816Z,97.79
2023-04-17T16:59:50.921Z,98.92
2023-04-17T17:02:22.226Z,99.97
2023-04-17T17:04:50.795Z,100.00
2023-04-17T17:07:21.438Z,100.00
2023-04-17T17:09:50.246Z,100.00
2023-04-17T17:12:19.381Z,100.00
2023-04-17T17:14:50.853Z,100.00
2023-04-17T17:17:19.281Z,100.00
2023-04-17T17:19:47.985Z,100.00
2023-04-17T17:22:17.414Z,100.00
2023-04-17T17:24:47.625Z,100.00
2023-04-17T17:27:18.265Z,100.00
2023-04-17T17:29:47.278Z,100.00
2023-04-17T17:32:19.266Z,100.00
2023-04-17T17:34:48.090Z,100.00
2023-04-17T17:37:16.388Z,100.00
2023-04-17T17:39:48.521Z,100.00
2023-04-17T17:42:17.427Z,100.00
2023-04-17T17:44:46.711Z,100.00
2023-04-17T17:47:15.200Z,100.00
2023-04-17T17:49:44.340Z,100.00
2023-04-17T17:52:12.915Z,100.00
2023-04-17T17:54:51.924Z,100.00
2023-04-17T17:57:20.868Z,100.00
2023-04-17T17:59:49.563Z,100.00
2023-04-17T18:02:18.223Z,100.00
2023-04-17T18:04:49.377Z,100.00
2023-04-17T18:07:18.072Z,100.00
2023-04-17T18:09:50.178Z,100.00
2023-04-17T18:12:20.770Z,100.00
2023-04-17T18:14:50.012Z,100.00
2023-04-17T18:17:18.834Z,100.00
2023-04-17T18:19:47.635Z,100.00
2023-04-17T18:22:16.573Z,100.00
2023-04-17T18:24:45.722Z,100.00
2023-04-17T18:27:17.818Z,100.00
2023-04-17T18:29:48.553Z,100.00
2023-04-17T18:32:17.328Z,100.00
2023-04-17T18:34:49.407Z,100.00
2023-04-17T18:37:20.503Z,100.00
2023-04-17T18:39:49.178Z,100.00
2023-04-17T18:42:17.951Z,100.00
2023-04-17T18:44:48.989Z,100.00
2023-04-17T18:47:17.481Z,100.00
2023-04-17T18:49:51.155Z,100.00
2023-04-17T18:52:19.738Z,100.00
2023-04-17T18:54:48.473Z,100.00
2023-04-17T18:57:19.134Z,100.00
2023-04-17T18:59:49.733Z,100.00
2023-04-17T19:02:18.741Z,100.00
2023-04-17T19:04:47.363Z,100.00
2023-04-17T19:07:18.244Z,100.00
2023-04-17T19:09:49.127Z,100.00
2023-04-17T19:12:18.313Z,100.00
2023-04-17T19:14:48.533Z,100.00
2023-04-17T19:17:17.534Z,100.00
2023-04-17T19:19:45.999Z,100.00
2023-04-17T19:22:16.099Z,100.00
2023-04-17T19:24:50.150Z,100.00
2023-04-17T19:27:18.889Z,100.00
2023-04-17T19:29:49.387Z,100.00
2023-04-17T19:32:19.054Z,100.00
2023-04-17T19:34:47.669Z,100.00
2023-04-17T19:37:16.482Z,100.00
2023-04-17T19:39:44.921Z,100.00
2023-04-17T19:42:13.821Z,100.00
2023-04-17T19:44:43.506Z,100.00
2023-04-17T19:47:15.919Z,100.00
2023-04-17T19:49:45.076Z,100.00
2023-04-17T19:52:16.580Z,100.00
2023-04-17T19:54:51.276Z,100.00
2023-04-17T19:57:19.955Z,100.00
2023-04-17T19:59:54.821Z,100.00
2023-04-17T20:02:25.067Z,100.00
2023-04-17T20:04:53.668Z,100.00
2023-04-17T20:07:22.303Z,100.00
2023-04-17T20:09:51.160Z,100.00
2023-04-17T20:12:22.153Z,100.00
2023-04-17T20:14:52.767Z,100.00
2023-04-17T20:17:24.459Z,100.00
2023-04-17T20:19:54.536Z,100.00
2023-04-17T20:22:23.109Z,100.00
2023-04-17T20:24:51.709Z,100.00
2023-04-17T20:27:23.360Z,100.00
2023-04-17T20:29:52.441Z,100.00
2023-04-17T20:32:21.757Z,100.00
2023-04-17T20:34:50.762Z,100.00
2023-04-17T20:37:22.480Z,100.00
2023-04-17T20:39:52.674Z,100.00
2023-04-17T20:42:22.512Z,100.00
2023-04-17T20:44:51.814Z,100.00
2023-04-17T20:47:20.817Z,100.00
2023-04-17T20:49:51.143Z,100.00
2023-04-17T20:52:21.049Z,100.00
2023-04-17T20:54:52.408Z,100.00
2023-04-17T20:57:22.993Z,100.00
2023-04-17T20:59:55.864Z,100.00
2023-04-17T21:02:26.719Z,100.00
2023-04-17T21:04:55.452Z,100.00
2023-04-17T21:07:25.852Z,100.00
2023-04-17T21:09:57.483Z,100.00
2023-04-17T21:12:26.222Z,100.00
2023-04-17T21:14:55.006Z,100.00
2023-04-17T21:17:23.839Z,100.00
2023-04-17T21:19:52.846Z,100.00
2023-04-17T21:22:21.768Z,100.00
2023-04-17T21:24:52.186Z,100.00
2023-04-17T21:27:21.144Z,100.00
2023-04-17T21:29:50.268Z,100.00
2023-04-17T21:32:19.265Z,100.00
2023-04-17T21:34:47.715Z,100.00
2023-04-17T21:37:18.374Z,100.00
2023-04-17T21:39:48.792Z,100.00
2023-04-17T21:42:21.431Z,100.00
2023-04-17T21:44:50.167Z,100.00
2023-04-17T21:47:20.018Z,100.00
2023-04-17T21:49:49.004Z,100.00
2023-04-17T21:52:18.217Z,100.00
2023-04-17T21:54:47.571Z,100.00
2023-04-17T21:57:23.809Z,100.00
2023-04-17T21:59:54.094Z,100.00
2023-04-17T22:02:25.321Z,100.00
2023-04-17T22:04:54.252Z,100.00
2023-04-17T22:07:23.288Z,100.00
2023-04-17T22:09:52.310Z,100.00
2023-04-17T22:12:21.215Z,100.00
2023-04-17T22:14:50.322Z,100.00
2023-04-17T22:17:20.682Z,100.00
2023-04-17T22:19:49.106Z,100.00
2023-04-17T22:22:17.766Z,100.00
2023-04-17T22:24:46.596Z,100.00
2023-04-17T22:27:15.272Z,100.00
2023-04-17T22:29:44.153Z,100.00
2023-04-17T22:32:12.804Z,100.00
2023-04-17T22:34:43.024Z,100.00
2023-04-17T22:37:11.329Z,100.00
2023-04-17T22:39:40.076Z,100.00
2023-04-17T22:42:11.352Z,100.00
2023-04-17T22:44:40.448Z,100.00
2023-04-17T22:47:09.285Z,100.00
2023-04-17T22:49:38.244Z,100.00
2023-04-17T22:52:08.363Z,100.00
2023-04-17T22:54:37.050Z,100.00
2023-04-17T22:57:06.007Z,100.00
2023-04-17T22:59:35.062Z,100.00
2023-04-17T23:02:04.666Z,100.00
2023-04-17T23:04:33.328Z,100.00
2023-04-17T23:07:03.247Z,100.00
2023-04-17T23:09:33.452Z,100.00
2023-04-17T23:12:03.666Z,100.00
2023-04-17T23:14:32.731Z,100.00
2023-04-17T23:17:01.866Z,100.00
2023-04-17T23:19:30.589Z,100.00
2023-04-17T23:22:01.306Z,100.00
2023-04-17T23:24:33.696Z,100.00
2023-04-17T23:27:03.890Z,100.00
2023-04-17T23:29:32.775Z,100.00
2023-04-17T23:32:01.815Z,100.00
2023-04-17T23:34:33.439Z,100.00
2023-04-17T23:37:02.841Z,100.00
2023-04-17T23:39:31.727Z,100.00
2023-04-17T23:42:00.774Z,100.00
2023-04-17T23:44:30.991Z,100.00
2023-04-17T23:47:00.208Z,100.00
2023-04-17T23:49:29.254Z,100.00
2023-04-17T23:51:57.896Z,100.00
2023-04-17T23:54:28.941Z,100.00
2023-04-17T23:56:58.476Z,100.00
2023-04-17T23:59:29.787Z,100.00
